createdAt,value
2022-11-28T00:04:15.852Z,10.02
2022-11-28T00:09:20.547Z,11.20
2022-11-28T00:14:24.661Z,11.02
2022-11-28T00:19:27.380Z,12.15
2022-11-28T00:24:30.235Z,10.98
2022-11-28T00:29:34.328Z,10.93
2022-11-28T00:34:37.088Z,10.68
2022-11-28T00:39:39.897Z,10.35
2022-11-28T00:44:44.439Z,10.77
2022-11-28T00:49:47.360Z,10.57
2022-11-28T00:54:50.179Z,10.70
2022-11-28T00:59:54.260Z,10.48
2022-11-28T01:04:57.018Z,11.45
2022-11-28T01:09:59.833Z,9.88
2022-11-28T01:15:05.036Z,9.88
2022-11-28T01:20:09.657Z,10.57
2022-11-28T01:25:12.492Z,8.95
2022-11-28T01:30:16.865Z,9.63
2022-11-28T01:35:19.785Z,10.55
2022-11-28T01:40:22.933Z,10.82
2022-11-28T01:45:30.288Z,10.05
2022-11-28T01:50:36.000Z,10.55
2022-11-28T01:55:43.709Z,11.80
2022-11-28T02:00:49.072Z,11.13
2022-11-28T02:05:52.886Z,10.38
2022-11-28T02:11:14.551Z,10.50
2022-11-28T02:16:35.908Z,11.57
2022-11-28T02:21:57.465Z,11.20
2022-11-28T02:27:20.707Z,12.00
2022-11-28T02:32:37.692Z,10.50
2022-11-28T02:43:00.604Z,11.40
2022-11-28T02:48:08.848Z,11.45
2022-11-28T02:53:16.489Z,10.80
2022-11-28T02:58:19.420Z,9.82
2022-11-28T03:03:40.988Z,11.85
2022-11-28T03:08:56.214Z,10.90
2022-11-28T03:14:08.580Z,12.50
2022-11-28T03:19:21.478Z,11.65
2022-11-28T03:24:33.237Z,11.98
2022-11-28T03:29:41.951Z,12.25
2022-11-28T03:34:50.869Z,12.50
2022-11-28T03:40:00.145Z,11.25
2022-11-28T03:45:09.346Z,11.73
2022-11-28T03:50:19.761Z,10.80
2022-11-28T03:55:26.587Z,11.35
2022-11-28T04:00:30.932Z,11.77
2022-11-28T04:05:42.874Z,11.70
2022-11-28T04:10:51.644Z,11.07
2022-11-28T04:16:00.361Z,11.52
2022-11-28T04:21:11.399Z,10.75
2022-11-28T04:26:18.676Z,11.40
2022-11-28T04:31:24.699Z,10.25
2022-11-28T04:36:31.283Z,11.43
2022-11-28T04:41:37.502Z,13.05
2022-11-28T04:46:44.361Z,11.27
2022-11-28T04:51:55.148Z,10.70
2022-11-28T04:57:03.057Z,10.23
2022-11-28T05:02:07.181Z,10.35
2022-11-28T05:07:11.719Z,10.40
2022-11-28T05:12:14.500Z,11.18
2022-11-28T05:17:17.354Z,10.32
2022-11-28T05:22:21.447Z,10.30
2022-11-28T05:27:24.270Z,10.65
2022-11-28T05:32:29.726Z,10.85
2022-11-28T05:37:33.955Z,11.10
2022-11-28T05:42:37.121Z,10.07
2022-11-28T05:47:39.901Z,11.23
2022-11-28T05:52:44.158Z,9.90
2022-11-28T05:57:47.118Z,11.40
2022-11-28T06:02:50.014Z,11.50
2022-11-28T06:07:54.378Z,11.38
2022-11-28T06:12:57.305Z,10.98
2022-11-28T06:18:00.111Z,12.10
2022-11-28T06:23:04.226Z,11.85
2022-11-28T06:28:07.184Z,12.95
2022-11-28T06:33:09.938Z,12.23
2022-11-28T06:38:14.477Z,11.93
2022-11-28T06:43:17.541Z,12.50
2022-11-28T06:48:20.589Z,11.93
2022-11-28T06:53:28.669Z,13.07
2022-11-28T06:58:34.551Z,13.05
2022-11-28T07:03:37.515Z,14.73
2022-11-28T07:08:41.987Z,17.30
2022-11-28T07:13:46.694Z,19.88
2022-11-28T07:18:50.274Z,19.10
2022-11-28T07:23:55.584Z,13.10
2022-11-28T07:28:59.872Z,13.85
2022-11-28T07:34:04.132Z,14.82
2022-11-28T07:39:09.853Z,13.88
2022-11-28T07:44:13.102Z,21.35
2022-11-28T07:49:16.588Z,14.70
2022-11-28T07:54:20.878Z,13.85
2022-11-28T07:59:23.782Z,12.70
2022-11-28T08:04:27.611Z,14.30
2022-11-28T08:09:34.061Z,11.18
2022-11-28T08:19:40.729Z,10.88
2022-11-28T08:24:45.322Z,13.23
2022-11-28T08:29:52.207Z,12.30
2022-11-28T08:34:56.373Z,12.23
2022-11-28T08:40:00.593Z,12.88
2022-11-28T08:45:04.157Z,11.82
2022-11-28T08:50:09.298Z,11.65
2022-11-28T08:55:18.282Z,10.98
2022-11-28T09:00:26.072Z,11.73
2022-11-28T09:05:30.466Z,12.85
2022-11-28T09:10:36.994Z,17.65
2022-11-28T09:15:41.286Z,24.50
2022-11-28T09:20:43.993Z,14.18
2022-11-28T09:25:50.949Z,13.00
2022-11-28T09:31:01.468Z,13.85
2022-11-28T09:36:08.714Z,11.05
2022-11-28T09:41:39.606Z,13.57
2022-11-28T09:46:43.844Z,11.55
2022-11-28T09:51:55.927Z,12.15
2022-11-28T09:57:01.525Z,12.40
2022-11-28T10:02:19.912Z,13.35
2022-11-28T10:07:31.054Z,15.27
2022-11-28T10:12:43.387Z,12.88
2022-11-28T10:17:54.132Z,14.18
2022-11-28T10:23:00.810Z,13.10
2022-11-28T10:28:07.962Z,13.13
2022-11-28T10:38:30.171Z,21.60
2022-11-28T10:43:44.689Z,16.58
2022-11-28T10:48:51.521Z,17.10
2022-11-28T10:54:06.906Z,15.68
2022-11-28T10:59:22.215Z,15.45
2022-11-28T11:04:28.193Z,47.65
2022-11-28T11:09:30.952Z,14.65
2022-11-28T11:14:39.853Z,15.30
2022-11-28T11:19:42.859Z,12.95
2022-11-28T11:24:46.368Z,12.55
2022-11-28T11:29:52.445Z,13.43
2022-11-28T11:34:58.008Z,14.10
2022-11-28T11:40:02.619Z,20.10
2022-11-28T11:45:29.468Z,13.38
2022-11-28T11:50:33.117Z,13.63
2022-11-28T11:55:44.600Z,13.60
2022-11-28T12:00:48.968Z,14.98
2022-11-28T12:11:24.463Z,14.55
2022-11-28T12:16:48.859Z,20.02
2022-11-28T12:22:07.893Z,15.27
2022-11-28T12:27:26.081Z,15.43
2022-11-28T12:32:43.277Z,15.10
2022-11-28T12:38:11.695Z,16.27
2022-11-28T12:43:26.912Z,14.40
2022-11-28T12:49:00.839Z,14.38
2022-11-28T12:54:18.456Z,15.07
2022-11-28T13:04:48.261Z,15.57
2022-11-28T13:10:01.568Z,16.88
2022-11-28T13:15:15.248Z,17.13
2022-11-28T13:20:26.351Z,44.30
2022-11-28T13:25:42.833Z,37.28
2022-11-28T13:30:52.756Z,23.92
2022-11-28T13:35:59.007Z,17.35
2022-11-28T13:41:22.860Z,30.88
2022-11-28T13:46:35.083Z,21.33
2022-11-28T13:51:39.325Z,29.40
2022-11-28T13:56:42.251Z,21.77
2022-11-28T14:01:47.005Z,22.98
2022-11-28T14:06:58.932Z,17.52
2022-11-28T14:12:17.473Z,19.73
2022-11-28T14:17:37.182Z,33.63
2022-11-28T14:22:54.251Z,24.05
2022-11-28T14:28:00.749Z,21.00
2022-11-28T14:33:07.316Z,20.15
2022-11-28T14:38:42.718Z,20.10
2022-11-28T14:43:49.635Z,18.83
2022-11-28T14:49:18.869Z,18.67
2022-11-28T14:54:25.154Z,19.77
2022-11-28T14:59:34.352Z,20.83
2022-11-28T15:04:54.793Z,21.95
2022-11-28T15:10:09.199Z,18.17
2022-11-28T15:15:17.168Z,26.88
2022-11-28T15:20:27.869Z,19.88
2022-11-28T15:25:37.148Z,19.98
2022-11-28T15:30:47.510Z,19.30
2022-11-28T15:35:58.184Z,20.15
2022-11-28T15:41:01.705Z,22.88
2022-11-28T15:46:08.206Z,17.65
2022-11-28T15:51:26.434Z,20.73
2022-11-28T15:56:29.442Z,26.25
2022-11-28T16:01:34.547Z,26.70
2022-11-28T16:06:41.359Z,19.83
2022-11-28T16:11:46.037Z,18.40
2022-11-28T16:16:50.484Z,18.50
2022-11-28T16:21:55.731Z,19.98
2022-11-28T16:27:00.866Z,17.48
2022-11-28T16:32:10.345Z,18.75
2022-11-28T16:37:13.650Z,19.00
2022-11-28T16:42:20.195Z,19.88
2022-11-28T16:47:30.309Z,17.08
2022-11-28T16:52:46.581Z,19.85
2022-11-28T16:57:56.037Z,21.80
2022-11-28T17:03:00.226Z,19.80
2022-11-28T17:08:03.034Z,56.88
2022-11-28T17:13:05.815Z,34.60
2022-11-28T17:18:09.991Z,23.65
2022-11-28T17:23:15.020Z,23.38
2022-11-28T17:28:22.352Z,20.60
2022-11-28T17:33:28.493Z,24.23
2022-11-28T17:38:33.658Z,26.40
2022-11-28T17:43:39.220Z,19.88
2022-11-28T17:48:44.112Z,28.55
2022-11-28T17:53:47.315Z,23.27
2022-11-28T17:58:50.358Z,22.95
2022-11-28T18:03:55.517Z,17.20
2022-11-28T18:09:00.011Z,18.13
2022-11-28T18:14:03.279Z,17.85
2022-11-28T18:19:07.564Z,23.73
2022-11-28T18:24:10.710Z,29.65
2022-11-28T18:29:13.581Z,22.27
2022-11-28T18:34:18.929Z,25.20
2022-11-28T18:39:21.648Z,24.63
2022-11-28T18:44:25.249Z,21.65
2022-11-28T18:49:30.503Z,28.50
2022-11-28T18:54:33.443Z,28.90
2022-11-28T18:59:36.370Z,27.67
2022-11-28T19:04:40.902Z,20.02
2022-11-28T19:09:45.162Z,18.60
2022-11-28T19:14:48.179Z,15.85
2022-11-28T19:19:53.091Z,17.92
2022-11-28T19:24:55.925Z,23.33
2022-11-28T19:29:58.799Z,19.52
2022-11-28T19:35:02.988Z,21.58
2022-11-28T19:40:07.211Z,19.95
2022-11-28T19:45:11.265Z,18.67
2022-11-28T19:50:15.833Z,19.30
2022-11-28T19:55:18.610Z,24.85
2022-11-28T20:00:22.135Z,33.15
2022-11-28T20:05:26.444Z,33.28
2022-11-28T20:10:29.863Z,30.65
2022-11-28T20:15:36.203Z,27.48
2022-11-28T20:20:41.498Z,24.45
2022-11-28T20:25:44.839Z,21.67
2022-11-28T20:30:47.766Z,21.10
2022-11-28T20:35:59.735Z,31.73
2022-11-28T20:41:03.291Z,26.15
2022-11-28T20:46:07.606Z,27.27
2022-11-28T20:51:13.186Z,20.67
2022-11-28T20:56:17.803Z,32.05
2022-11-28T21:01:22.666Z,24.42
2022-11-28T21:06:27.042Z,23.92
2022-11-28T21:11:55.845Z,29.00
2022-11-28T21:16:52.857Z,27.85
2022-11-28T21:21:57.108Z,20.42
2022-11-28T21:26:59.965Z,22.73
2022-11-28T21:32:02.845Z,25.90
2022-11-28T21:37:07.122Z,31.83
2022-11-28T21:42:09.951Z,26.17
2022-11-28T21:47:13.022Z,21.50
2022-11-28T21:52:23.343Z,19.48
2022-11-28T21:57:26.172Z,16.80
2022-11-28T22:02:30.991Z,18.58
2022-11-28T22:07:37.567Z,17.60
2022-11-28T22:12:40.402Z,17.73
2022-11-28T22:17:43.390Z,16.58
2022-11-28T22:22:48.829Z,16.50
2022-11-28T22:27:51.680Z,17.77
2022-11-28T22:32:54.871Z,19.02
2022-11-28T22:37:59.097Z,19.40
2022-11-28T22:43:01.876Z,18.52
2022-11-28T22:48:05.306Z,17.50
2022-11-28T22:53:09.671Z,21.70
2022-11-28T22:58:12.578Z,18.30
2022-11-28T23:03:15.647Z,19.83
2022-11-28T23:08:20.477Z,18.83
2022-11-28T23:13:23.906Z,19.20
2022-11-28T23:18:26.885Z,19.10
2022-11-28T23:23:32.870Z,19.20
2022-11-28T23:28:37.173Z,19.08
2022-11-28T23:33:40.933Z,19.88
2022-11-28T23:38:47.903Z,20.20
2022-11-28T23:43:50.953Z,17.27
2022-11-28T23:48:53.911Z,18.50
2022-11-28T23:53:58.176Z,16.92
2022-11-28T23:59:02.360Z,18.40
